Time;durP1;ratioP1;P1;durP2;ratioP2;P2;SDS_P1;SDS_P2;PMS_P1;PMS_P2;Temp;Humidity;BMP_temperature;BMP_pressure;BME280_temperature;BME280_humidity;BME280_pressure;Samples;Min_cycle;Max_cycle;Signal;HPM_P1;HPM_P2
2021/04/30 00:01:41;;;;;;;14.50;3.70;;;;;;;23.85;40.33;98896.66;4479036;32;34524;-60
2021/04/30 00:04:09;;;;;;;8.95;3.08;;;;;;;23.85;40.25;98895.81;4468585;32;33574;-60
2021/04/30 00:06:36;;;;;;;12.45;3.90;;;;;;;23.86;40.10;98895.56;4468446;32;33945;-60
2021/04/30 00:09:03;;;;;;;14.23;3.97;;;;;;;23.87;40.09;98899.09;4468285;32;33556;-60
2021/04/30 00:11:38;;;;;;;9.68;3.50;;;;;;;23.86;40.11;98892.00;4475840;32;33990;-60
2021/04/30 00:14:06;;;;;;;16.00;3.72;;;;;;;23.87;40.31;98893.66;4484126;32;33981;-59
2021/04/30 00:16:39;;;;;;;12.05;3.72;;;;;;;23.86;40.30;98886.56;4484249;32;34823;-60
2021/04/30 00:19:07;;;;;;;9.02;3.28;;;;;;;23.84;40.35;98892.28;4483818;32;33825;-59
2021/04/30 00:21:36;;;;;;;11.77;3.70;;;;;;;23.85;40.34;98896.66;4483809;32;34578;-60
2021/04/30 00:24:06;;;;;;;10.15;3.87;;;;;;;23.83;40.48;98893.38;4484051;32;33916;-58
2021/04/30 00:26:34;;;;;;;9.68;4.50;;;;;;;23.84;40.56;98899.62;4483937;32;34290;-59
2021/04/30 00:29:01;;;;;;;12.27;4.15;;;;;;;23.84;40.54;98899.62;4484024;32;33379;-59
2021/04/30 00:31:28;;;;;;;7.15;3.40;;;;;;;23.83;40.39;98896.09;4483766;32;33947;-60
2021/04/30 00:33:56;;;;;;;11.43;3.58;;;;;;;23.84;40.35;98897.72;4482464;32;33775;-59
2021/04/30 00:36:24;;;;;;;10.18;3.65;;;;;;;23.84;40.32;98900.44;4482745;32;34094;-59
2021/04/30 00:38:51;;;;;;;9.02;3.95;;;;;;;23.84;40.23;98905.91;4483964;32;33401;-61
2021/04/30 00:41:18;;;;;;;10.82;3.62;;;;;;;23.84;40.28;98910.53;4483511;31;34634;-59
2021/04/30 00:43:57;;;;;;;7.72;3.22;;;;;;;23.84;40.31;98914.06;4483795;32;33922;-60
2021/04/30 00:46:24;;;;;;;14.50;3.45;;;;;;;23.83;40.29;98906.97;4483785;32;33804;-59
2021/04/30 00:48:52;;;;;;;12.20;3.58;;;;;;;23.82;40.31;98908.03;4483549;32;33482;-58
2021/04/30 00:51:19;;;;;;;11.12;3.50;;;;;;;23.83;40.32;98903.44;4483902;32;33730;-58
2021/04/30 00:53:46;;;;;;;9.40;3.47;;;;;;;23.82;40.30;98899.84;4483812;32;34598;-60
2021/04/30 00:56:13;;;;;;;10.13;3.58;;;;;;;23.81;40.32;98906.38;4483848;32;35488;-60
2021/04/30 00:58:40;;;;;;;11.02;3.90;;;;;;;23.81;40.24;98898.22;4469532;32;33246;-60
2021/04/30 01:01:07;;;;;;;8.68;3.42;;;;;;;23.81;40.29;98898.22;4483732;32;33705;-59
2021/04/30 01:03:35;;;;;;;8.30;2.92;;;;;;;23.81;40.24;98892.78;4483538;32;33853;-60
2021/04/30 01:06:02;;;;;;;7.15;3.40;;;;;;;23.81;40.26;98894.66;4466580;32;35780;-59
2021/04/30 01:08:29;;;;;;;7.82;3.00;;;;;;;23.81;40.30;98897.41;4468060;32;34383;-59
2021/04/30 01:10:56;;;;;;;8.50;3.67;;;;;;;23.81;40.36;98891.94;4468009;32;33840;-59
2021/04/30 01:13:23;;;;;;;9.48;3.87;;;;;;;23.80;40.33;98893.03;4467818;32;33604;-59
2021/04/30 01:15:51;;;;;;;7.12;3.33;;;;;;;23.82;40.29;98901.75;4467823;32;34629;-59
2021/04/30 01:18:18;;;;;;;8.43;3.17;;;;;;;23.80;40.32;98902.03;4467937;32;34186;-58
2021/04/30 01:20:45;;;;;;;7.95;3.05;;;;;;;23.80;40.32;98904.75;4469486;32;34464;-60
2021/04/30 01:23:12;;;;;;;8.55;3.10;;;;;;;23.80;40.28;98895.75;4483440;32;34403;-59
2021/04/30 01:25:39;;;;;;;8.23;3.55;;;;;;;23.79;40.28;98897.66;4483403;32;34640;-59
2021/04/30 01:28:07;;;;;;;8.57;3.25;;;;;;;23.78;40.29;98903.34;4483158;32;33100;-59
2021/04/30 01:30:35;;;;;;;14.70;3.03;;;;;;;23.78;40.30;98897.88;4483257;32;33594;-59
2021/04/30 01:33:03;;;;;;;6.70;3.30;;;;;;;23.78;40.33;98897.88;4483176;32;33856;-59
2021/04/30 01:35:31;;;;;;;8.45;3.10;;;;;;;23.79;40.33;98894.13;4483234;32;33740;-58
2021/04/30 01:37:59;;;;;;;7.22;3.20;;;;;;;23.78;40.58;98898.75;4483413;32;33345;-59
2021/04/30 01:40:27;;;;;;;9.38;3.40;;;;;;;23.77;40.62;98896.25;4482904;32;33575;-60
2021/04/30 01:43:08;;;;;;;8.77;3.25;;;;;;;23.77;40.57;98902.50;4483270;32;33816;-59
2021/04/30 01:45:37;;;;;;;8.52;3.22;;;;;;;23.77;40.49;98907.97;4483083;32;34533;-59
2021/04/30 01:48:07;;;;;;;10.03;3.00;;;;;;;23.77;40.43;98907.12;4482865;32;33369;-59
2021/04/30 01:50:34;;;;;;;13.80;3.62;;;;;;;23.77;40.45;98902.50;4483042;32;34822;-59
2021/04/30 01:53:01;;;;;;;7.25;3.47;;;;;;;23.78;40.57;98909.63;4483973;32;33577;-59
2021/04/30 01:55:29;;;;;;;7.97;2.97;;;;;;;23.77;40.60;98910.69;4484795;32;33907;-59
2021/04/30 01:57:56;;;;;;;8.25;3.25;;;;;;;23.77;40.57;98902.50;4485003;32;33540;-60
2021/04/30 02:00:25;;;;;;;12.95;2.90;;;;;;;23.78;40.49;98906.06;4485070;32;34622;-59
2021/04/30 02:02:53;;;;;;;10.73;3.60;;;;;;;23.76;40.51;98906.31;4485010;32;34881;-59
2021/04/30 02:05:23;;;;;;;9.60;3.20;;;;;;;23.76;40.51;98898.16;4485005;32;33884;-59
2021/04/30 02:07:50;;;;;;;10.27;3.37;;;;;;;23.76;40.60;98892.69;4485153;32;33401;-59
2021/04/30 02:10:22;;;;;;;7.45;2.80;;;;;;;23.77;40.66;98898.97;4485083;32;34820;-60
2021/04/30 02:12:50;;;;;;;6.00;3.22;;;;;;;23.76;40.46;98898.16;4483650;32;33961;-59
2021/04/30 02:15:18;;;;;;;12.98;3.47;;;;;;;23.76;40.45;98906.31;4484846;32;33910;-60
2021/04/30 02:17:45;;;;;;;12.73;3.67;;;;;;;23.77;40.49;98907.12;4484931;32;33438;-58
2021/04/30 02:20:14;;;;;;;9.15;3.15;;;;;;;23.75;40.61;98912.03;4484881;32;33816;-59
2021/04/30 02:22:58;;;;;;;6.37;2.87;;;;;;;23.75;40.64;98901.13;4485066;32;33536;-60
2021/04/30 02:25:27;;;;;;;10.18;3.20;;;;;;;23.74;40.54;98905.75;4485001;32;34594;-59
2021/04/30 02:27:54;;;;;;;7.60;3.17;;;;;;;23.75;40.62;98912.03;4484620;32;33481;-60
2021/04/30 02:30:33;;;;;;;9.15;3.08;;;;;;;23.73;40.56;98908.72;4484867;32;33895;-58
2021/04/30 02:33:01;;;;;;;7.87;3.30;;;;;;;23.74;40.49;98922.09;4484686;32;33672;-59
2021/04/30 02:35:35;;;;;;;8.85;2.80;;;;;;;23.76;40.41;98922.66;4484750;32;33769;-59
2021/04/30 02:38:03;;;;;;;11.82;2.87;;;;;;;23.76;40.50;98930.84;4484773;32;33063;-60
2021/04/30 02:40:31;;;;;;;9.38;3.22;;;;;;;23.74;40.66;98926.72;4484632;31;33779;-60
2021/04/30 02:42:59;;;;;;;8.88;3.00;;;;;;;23.73;40.52;98922.31;4484681;32;34916;-59
2021/04/30 02:45:27;;;;;;;6.82;2.90;;;;;;;23.73;40.47;98922.31;4484933;32;33667;-59
2021/04/30 02:47:54;;;;;;;5.70;2.60;;;;;;;23.73;40.38;98917.69;4484346;32;34559;-60
2021/04/30 02:50:23;;;;;;;7.05;3.20;;;;;;;23.73;40.40;98917.69;4484719;32;33849;-60
2021/04/30 02:52:50;;;;;;;11.07;3.12;;;;;;;23.73;40.50;98917.69;4484824;32;33908;-60
2021/04/30 02:55:20;;;;;;;7.62;2.83;;;;;;;23.73;40.46;98914.97;4484475;32;33874;-59
2021/04/30 02:57:51;;;;;;;9.82;2.90;;;;;;;23.72;40.49;98912.50;4484725;32;33068;-60
2021/04/30 03:00:19;;;;;;;9.30;3.05;;;;;;;23.73;40.56;98914.97;4484728;32;34572;-60
2021/04/30 03:02:46;;;;;;;7.30;2.67;;;;;;;23.73;40.67;98920.44;4484298;32;34090;-60
2021/04/30 03:05:13;;;;;;;10.20;3.40;;;;;;;23.74;40.66;98924.00;4484610;32;33827;-60
2021/04/30 03:07:41;;;;;;;8.02;2.87;;;;;;;23.72;40.54;98920.69;4484739;32;33318;-58
2021/04/30 03:10:08;;;;;;;13.77;3.58;;;;;;;23.72;40.64;98926.13;4484309;32;33481;-60
2021/04/30 03:12:35;;;;;;;9.02;3.00;;;;;;;23.71;40.64;98921.78;4484053;32;35329;-60
2021/04/30 03:15:03;;;;;;;8.73;3.10;;;;;;;23.72;40.65;98920.69;4483227;32;33882;-60
2021/04/30 03:17:30;;;;;;;7.12;2.60;;;;;;;23.71;40.64;98924.50;4484389;32;33286;-59
2021/04/30 03:19:57;;;;;;;9.60;3.28;;;;;;;23.69;40.54;98927.47;4484435;32;33815;-59
2021/04/30 03:22:25;;;;;;;10.82;3.28;;;;;;;23.70;40.53;98928.28;4484319;32;34670;-60
2021/04/30 03:24:52;;;;;;;8.38;2.65;;;;;;;23.69;40.58;98927.47;4484325;32;33990;-60
2021/04/30 03:27:19;;;;;;;6.50;2.53;;;;;;;23.70;40.63;98928.28;4484337;32;33264;-59
2021/04/30 03:29:47;;;;;;;7.82;2.50;;;;;;;23.69;40.58;98935.66;4484323;32;34848;-58
2021/04/30 03:32:14;;;;;;;8.95;3.10;;;;;;;23.68;40.45;98933.97;4484148;32;34824;-58
2021/04/30 03:34:41;;;;;;;8.90;2.83;;;;;;;23.68;40.43;98942.97;4484341;32;34000;-59
2021/04/30 03:37:08;;;;;;;7.60;3.22;;;;;;;23.68;40.48;98940.25;4484144;32;33452;-60
2021/04/30 03:39:35;;;;;;;6.18;2.50;;;;;;;23.67;40.50;98944.03;4484114;32;34585;-59
2021/04/30 03:42:05;;;;;;;;;;;;;;;23.68;40.42;98942.13;4484696;32;33941;-59
2021/04/30 03:44:33;;;;;;;6.93;2.80;;;;;;;23.79;40.21;98951.31;4484465;32;34842;-59
2021/04/30 03:47:00;;;;;;;8.25;2.83;;;;;;;23.70;40.36;98950.09;4482925;32;33410;-60
2021/04/30 03:49:28;;;;;;;6.75;2.90;;;;;;;23.68;40.40;98951.13;4484226;32;33882;-59
2021/04/30 03:51:55;;;;;;;7.47;3.00;;;;;;;23.66;40.40;98953.28;4484354;32;34025;-60
2021/04/30 03:54:22;;;;;;;6.60;2.87;;;;;;;23.66;40.40;98960.62;4484072;32;33853;-60
2021/04/30 03:56:49;;;;;;;7.20;2.90;;;;;;;23.66;40.44;98964.19;4484234;32;34842;-59
2021/04/30 03:59:17;;;;;;;10.15;3.08;;;;;;;23.66;40.45;98960.62;4484148;32;33966;-60
2021/04/30 04:01:44;;;;;;;5.45;2.47;;;;;;;23.67;40.40;98967.72;4482462;31;33845;-61
2021/04/30 04:04:11;;;;;;;6.65;2.60;;;;;;;23.65;40.37;98970.72;4484094;32;33369;-60
2021/04/30 04:06:38;;;;;;;5.35;2.72;;;;;;;23.66;40.27;98969.63;4482804;32;33250;-61
2021/04/30 04:09:05;;;;;;;7.07;2.83;;;;;;;23.66;40.35;98966.91;4484322;32;33840;-60
2021/04/30 04:11:33;;;;;;;8.73;2.67;;;;;;;23.66;40.35;98971.53;4483948;32;34049;-61
2021/04/30 04:14:00;;;;;;;5.90;2.70;;;;;;;23.67;40.54;98973.19;4484216;32;33870;-61
2021/04/30 04:16:27;;;;;;;6.90;2.92;;;;;;;23.66;40.51;98969.63;4483485;32;33218;-60
2021/04/30 04:18:55;;;;;;;8.95;2.75;;;;;;;23.65;40.50;98976.16;4484228;32;33855;-61
2021/04/30 04:21:22;;;;;;;7.45;3.03;;;;;;;23.66;40.61;98975.09;4468581;32;33872;-61
2021/04/30 04:23:49;;;;;;;8.38;2.40;;;;;;;23.65;40.61;98978.88;4475260;32;34983;-59
2021/04/30 04:26:17;;;;;;;6.40;2.87;;;;;;;23.66;40.55;98987.87;4483877;32;35066;-59
2021/04/30 04:28:44;;;;;;;5.53;2.50;;;;;;;23.66;40.48;98990.59;4482042;31;33607;-61
2021/04/30 04:31:11;;;;;;;7.95;2.60;;;;;;;23.66;40.51;99001.50;4483638;32;34711;-60
2021/04/30 04:33:38;;;;;;;4.72;2.70;;;;;;;23.66;40.49;98996.03;4483828;32;33732;-61
2021/04/30 04:36:06;;;;;;;6.28;2.30;;;;;;;23.65;40.49;99005.28;4483998;32;33060;-60
2021/04/30 04:38:33;;;;;;;5.68;2.35;;;;;;;23.65;40.48;99010.75;4483845;32;34091;-61
2021/04/30 04:41:01;;;;;;;6.10;2.40;;;;;;;23.65;40.53;99013.47;4483933;31;33981;-61
2021/04/30 04:43:29;;;;;;;5.57;2.70;;;;;;;23.67;40.40;99008.59;4483871;32;33895;-61
2021/04/30 04:45:56;;;;;;;8.93;2.95;;;;;;;23.67;40.46;99009.41;4480025;32;33346;-60
2021/04/30 04:48:24;;;;;;;6.97;2.70;;;;;;;23.65;40.70;99005.28;4479562;32;33890;-60
2021/04/30 04:50:51;;;;;;;8.23;2.83;;;;;;;23.65;40.66;99017.00;4483798;32;34858;-60
2021/04/30 04:53:23;;;;;;;7.97;2.67;;;;;;;23.65;40.51;99011.56;4480948;32;33992;-59
2021/04/30 04:56:10;;;;;;;7.97;2.60;;;;;;;23.65;40.52;99018.91;4468082;32;34042;-59
2021/04/30 04:58:38;;;;;;;12.95;2.85;;;;;;;23.65;40.53;99019.72;4468152;32;33605;-60
2021/04/30 05:01:06;;;;;;;6.07;2.15;;;;;;;23.65;40.62;99016.19;4467995;32;35545;-59
2021/04/30 05:03:33;;;;;;;7.03;2.67;;;;;;;23.66;40.59;99012.38;4480577;32;33799;-60
2021/04/30 05:06:01;;;;;;;7.80;2.35;;;;;;;23.64;40.57;99015.38;4477712;32;34256;-59
2021/04/30 05:08:28;;;;;;;3.85;2.22;;;;;;;23.63;40.60;99027.28;4467957;32;33821;-59
2021/04/30 05:10:55;;;;;;;6.68;2.60;;;;;;;23.64;40.55;99023.53;4467759;32;33838;-59
2021/04/30 05:13:23;;;;;;;7.15;2.40;;;;;;;23.64;40.54;99033.59;4467889;32;34941;-60
2021/04/30 05:15:52;;;;;;;7.90;2.42;;;;;;;23.65;40.58;99033.34;4467947;32;33244;-60
2021/04/30 05:18:19;;;;;;;6.72;2.45;;;;;;;23.65;40.63;99027.09;4467655;32;34828;-60
2021/04/30 05:20:47;;;;;;;5.72;2.45;;;;;;;23.65;40.61;99035.25;4467905;32;33939;-59
2021/04/30 05:23:14;;;;;;;7.65;2.50;;;;;;;23.64;40.61;99037.16;4476326;32;34769;-59
2021/04/30 05:25:41;;;;;;;6.80;2.60;;;;;;;23.64;40.69;99033.59;4469129;32;34170;-57
2021/04/30 05:28:08;;;;;;;6.32;2.83;;;;;;;23.65;40.60;99046.16;4484387;32;33721;-60
2021/04/30 05:30:35;;;;;;;8.77;2.83;;;;;;;23.63;40.64;99043.63;4485162;32;33852;-60
2021/04/30 05:33:02;;;;;;;8.60;2.70;;;;;;;23.64;40.53;99042.59;4485473;32;34331;-60
2021/04/30 05:35:30;;;;;;;5.50;2.47;;;;;;;23.64;40.61;99041.75;4483862;32;34287;-55
2021/04/30 05:37:57;;;;;;;7.05;2.20;;;;;;;23.64;40.67;99041.75;4474613;32;33848;-57
2021/04/30 05:40:24;;;;;;;10.30;3.03;;;;;;;23.65;40.64;99035.25;4473559;32;34977;-59
2021/04/30 05:42:51;;;;;;;18.92;2.60;;;;;;;23.63;40.86;99034.63;4469500;32;33681;-57
2021/04/30 05:45:18;;;;;;;12.20;2.47;;;;;;;23.64;41.01;99041.75;4480444;32;34166;-60
2021/04/30 05:47:46;;;;;;;9.30;3.08;;;;;;;23.64;40.67;99042.59;4485132;32;33848;-59
2021/04/30 05:50:13;;;;;;;12.70;2.85;;;;;;;23.64;40.47;99044.47;4485237;32;33251;-60
2021/04/30 05:52:40;;;;;;;10.93;3.05;;;;;;;23.63;40.58;99049.06;4481902;32;34769;-60
2021/04/30 05:55:08;;;;;;;6.28;2.60;;;;;;;23.64;40.61;99058.09;4469344;32;34334;-59
2021/04/30 05:57:37;;;;;;;15.88;3.05;;;;;;;23.63;40.52;99056.41;4469259;32;33834;-60
2021/04/30 06:00:05;;;;;;;11.93;2.67;;;;;;;23.62;40.58;99052.03;4491815;31;32088;-60
2021/04/30 06:02:42;;;;;;;11.52;2.92;;;;;;;23.61;40.51;99062.13;4500401;31;33740;-56
2021/04/30 06:05:10;;;;;;;11.65;2.70;;;;;;;23.63;40.43;99070.03;4487084;31;33514;-59
2021/04/30 06:07:37;;;;;;;10.68;3.10;;;;;;;23.63;40.51;99068.12;4484948;32;33981;-59
2021/04/30 06:10:05;;;;;;;7.15;2.83;;;;;;;23.63;40.55;99070.84;4484810;32;34796;-59
2021/04/30 06:12:32;;;;;;;9.15;2.78;;;;;;;23.64;40.52;99078.00;4484929;32;33960;-60
2021/04/30 06:14:59;;;;;;;11.35;3.03;;;;;;;23.66;40.51;99081.28;4482884;32;34254;-60
2021/04/30 06:17:28;;;;;;;8.05;2.40;;;;;;;23.66;40.61;99091.38;4468628;32;33747;-59
2021/04/30 06:19:55;;;;;;;8.23;2.87;;;;;;;23.68;40.53;99089.22;4466989;32;33803;-60
2021/04/30 06:22:30;;;;;;;12.32;2.78;;;;;;;23.68;40.55;99092.75;4470998;32;33869;-60
2021/04/30 06:24:58;;;;;;;8.40;2.75;;;;;;;23.72;40.53;99097.72;4471127;32;33426;-58
2021/04/30 06:27:25;;;;;;;14.07;2.92;;;;;;;23.71;40.57;99096.09;4467008;32;33702;-60
2021/04/30 06:29:52;;;;;;;12.37;2.87;;;;;;;23.69;40.61;99090.88;4476078;32;34011;-59
2021/04/30 06:32:19;;;;;;;7.65;2.75;;;;;;;23.71;40.66;99090.62;4484665;32;33493;-60
2021/04/30 06:34:46;;;;;;;7.75;2.22;;;;;;;23.71;40.67;99090.62;4484825;32;33332;-58
2021/04/30 06:37:13;;;;;;;8.13;2.50;;;;;;;23.72;40.67;99100.44;4484610;32;33760;-55
2021/04/30 06:39:41;;;;;;;8.10;2.40;;;;;;;23.73;40.69;99096.66;4483076;31;34762;-60
2021/04/30 06:42:08;;;;;;;7.62;2.50;;;;;;;23.72;40.70;99097.72;4484746;32;34787;-59
2021/04/30 06:44:36;;;;;;;8.95;2.95;;;;;;;23.75;40.74;99102.69;4484350;32;33381;-59
2021/04/30 06:47:03;;;;;;;6.28;3.03;;;;;;;23.75;40.74;99103.53;4484709;32;33633;-57
2021/04/30 06:49:31;;;;;;;10.43;3.10;;;;;;;23.74;40.77;99101.87;4484373;32;34095;-57
2021/04/30 06:51:58;;;;;;;8.15;2.47;;;;;;;23.74;40.88;99101.06;4484228;32;34974;-59
2021/04/30 06:54:25;;;;;;;7.80;2.72;;;;;;;23.75;40.88;99099.97;4484877;32;33481;-53
2021/04/30 06:56:52;;;;;;;6.80;2.67;;;;;;;23.75;40.89;99105.41;4484266;32;33800;-57
2021/04/30 06:59:20;;;;;;;8.63;2.70;;;;;;;23.76;40.82;99101.63;4484372;32;34458;-55
2021/04/30 07:01:47;;;;;;;10.00;2.37;;;;;;;23.78;40.80;99113.09;4484297;32;33952;-60
2021/04/30 07:04:14;;;;;;;6.22;2.20;;;;;;;23.77;40.86;99116.87;4484655;32;33432;-59
2021/04/30 07:06:41;;;;;;;8.82;2.92;;;;;;;23.76;40.91;99121.50;4470295;32;33852;-60
2021/04/30 07:09:09;;;;;;;11.50;2.83;;;;;;;23.76;40.93;99117.97;4484401;32;33597;-59
2021/04/30 07:11:36;;;;;;;5.40;2.37;;;;;;;23.76;40.98;99118.78;4483251;32;33806;-59
2021/04/30 07:14:05;;;;;;;7.35;2.70;;;;;;;23.76;40.95;99121.50;4484520;32;34214;-59
2021/04/30 07:16:32;;;;;;;5.87;2.40;;;;;;;23.77;40.96;99125.88;4484379;32;33597;-57
2021/04/30 07:18:59;;;;;;;7.35;2.53;;;;;;;23.80;40.82;99121.84;4484398;32;34766;-54
2021/04/30 07:21:26;;;;;;;8.32;2.62;;;;;;;23.80;40.83;99121.84;4484010;32;34402;-56
2021/04/30 07:23:53;;;;;;;6.05;2.30;;;;;;;23.79;40.79;99131.09;4484551;32;33268;-57
2021/04/30 07:26:20;;;;;;;11.57;3.10;;;;;;;23.81;40.79;99128.94;4484291;32;33836;-59
2021/04/30 07:28:48;;;;;;;17.20;3.90;;;;;;;23.80;40.86;99138.19;4483648;32;33524;-58
2021/04/30 07:31:15;;;;;;;14.90;3.37;;;;;;;23.79;40.90;99144.72;4468661;32;33533;-59
2021/04/30 07:33:48;;;;;;;10.38;3.17;;;;;;;23.80;40.90;99140.91;4468358;32;33561;-57
2021/04/30 07:36:15;;;;;;;11.77;3.17;;;;;;;23.78;40.80;99141.19;4468453;32;33648;-59
2021/04/30 07:38:43;;;;;;;12.45;3.03;;;;;;;23.78;40.75;99146.63;4468397;32;33917;-58
2021/04/30 07:41:10;;;;;;;12.00;3.47;;;;;;;23.78;40.82;99154.78;4468254;32;34016;-57
2021/04/30 07:43:38;;;;;;;9.70;3.08;;;;;;;23.78;40.70;99152.06;4468577;32;33492;-56
2021/04/30 07:46:05;;;;;;;10.77;3.28;;;;;;;23.79;40.64;99158.34;4468697;32;33847;-52
2021/04/30 07:48:32;;;;;;;14.38;3.12;;;;;;;23.78;40.57;99168.41;4468432;32;33859;-60
2021/04/30 07:51:02;;;;;;;21.52;4.25;;;;;;;23.80;40.61;99170.87;4467419;32;34772;-61
2021/04/30 07:53:30;;;;;;;10.18;3.20;;;;;;;23.78;40.74;99176.59;4479157;32;33508;-59
2021/04/30 07:55:57;;;;;;;15.77;3.40;;;;;;;23.80;40.66;99182.59;4484330;32;34456;-57
2021/04/30 07:58:27;;;;;;;13.02;3.60;;;;;;;23.80;40.77;99177.16;4474708;32;33764;-56
2021/04/30 08:00:55;;;;;;;15.45;3.70;;;;;;;23.80;40.78;99176.34;4468315;32;33089;-58
2021/04/30 08:03:23;;;;;;;9.40;3.00;;;;;;;23.82;40.77;99195.97;4468243;32;33328;-57
2021/04/30 08:05:51;;;;;;;13.68;3.40;;;;;;;23.83;40.79;99195.75;4467943;32;33739;-58
2021/04/30 08:08:18;;;;;;;12.70;3.53;;;;;;;23.83;40.85;99189.47;4468378;32;33579;-57
2021/04/30 08:10:45;;;;;;;11.65;3.10;;;;;;;23.82;40.79;99191.34;4468475;32;33704;-59
2021/04/30 08:13:12;;;;;;;7.70;3.08;;;;;;;23.82;40.89;99190.53;4468318;32;33277;-55
2021/04/30 08:15:39;;;;;;;14.15;3.30;;;;;;;23.83;40.92;99194.94;4468339;32;33829;-55
2021/04/30 08:18:07;;;;;;;11.45;3.55;;;;;;;23.84;40.91;99194.69;4468451;32;34397;-59
2021/04/30 08:20:34;;;;;;;9.52;3.10;;;;;;;23.84;40.95;99208.28;4468034;32;33874;-59
2021/04/30 08:23:02;;;;;;;12.52;3.53;;;;;;;23.85;40.91;99198.22;4468311;32;33391;-59
2021/04/30 08:25:29;;;;;;;8.30;2.90;;;;;;;23.87;40.89;99204.25;4468370;32;33515;-58
2021/04/30 08:27:57;;;;;;;7.43;2.72;;;;;;;23.87;40.87;99204.25;4468521;32;33721;-59
2021/04/30 08:30:24;;;;;;;8.93;2.90;;;;;;;23.87;40.87;99209.69;4479042;32;34636;-57
2021/04/30 08:32:51;;;;;;;8.38;2.72;;;;;;;23.89;40.82;99208.37;4480760;32;91112;-59
2021/04/30 08:35:18;;;;;;;12.05;2.92;;;;;;;23.89;40.82;99219.28;4482349;32;32163;-60
2021/04/30 08:37:45;;;;;;;12.63;2.90;;;;;;;23.88;40.85;99219.53;4483391;32;33875;-59
2021/04/30 08:40:13;;;;;;;14.90;3.28;;;;;;;23.90;40.81;99233.72;4483508;32;33902;-58
2021/04/30 08:42:40;;;;;;;11.45;3.22;;;;;;;23.88;40.88;99230.44;4483591;32;34169;-58
2021/04/30 08:45:13;;;;;;;11.20;3.72;;;;;;;23.89;40.95;99218.47;4483616;32;34663;-59
2021/04/30 08:47:42;;;;;;;18.15;3.50;;;;;;;23.92;40.89;99223.41;4483623;32;34717;-56
2021/04/30 08:50:10;;;;;;;12.65;3.53;;;;;;;23.91;40.90;99232.66;4483758;32;33659;-55
2021/04/30 08:52:37;;;;;;;15.82;4.30;;;;;;;23.89;40.97;99221.19;4478604;32;33402;-50
2021/04/30 08:55:09;;;;;;;13.07;3.50;;;;;;;23.90;40.94;99229.13;4482688;32;33737;-60
2021/04/30 08:57:37;;;;;;;17.30;3.35;;;;;;;23.90;40.96;99228.28;4470323;32;33576;-59
2021/04/30 09:00:06;;;;;;;16.62;3.37;;;;;;;23.90;40.99;99222.84;4466630;32;33893;-53
2021/04/30 09:02:34;;;;;;;14.80;4.00;;;;;;;23.88;40.98;99225.00;4477255;32;33348;-59
2021/04/30 09:05:02;;;;;;;10.07;3.08;;;;;;;23.87;41.01;99223.31;4467223;32;33497;-60
2021/04/30 09:07:31;;;;;;;10.65;3.22;;;;;;;23.88;40.99;99220.38;4474746;32;34035;-59
2021/04/30 09:10:12;;;;;;;11.52;3.05;;;;;;;23.89;40.98;99230.19;4483362;32;33917;-60
2021/04/30 09:12:41;;;;;;;11.88;3.60;;;;;;;23.93;40.91;99227.81;4483314;32;33426;-59
2021/04/30 09:15:20;;;;;;;11.02;3.37;;;;;;;23.90;40.92;99214.66;4482134;32;33440;-60
2021/04/30 09:17:47;;;;;;;12.20;3.28;;;;;;;23.91;40.93;99224.47;4483550;32;33914;-59
2021/04/30 09:20:14;;;;;;;12.43;3.28;;;;;;;23.89;40.94;99215.75;4472661;32;34750;-60
2021/04/30 09:22:43;;;;;;;10.05;3.17;;;;;;;23.91;40.89;99217.13;4467483;32;33526;-57
2021/04/30 09:25:12;;;;;;;11.10;3.10;;;;;;;23.89;40.88;99208.37;4467845;32;33810;-59
2021/04/30 09:27:40;;;;;;;16.90;3.83;;;;;;;23.89;40.87;99199.41;4467659;32;34449;-56
2021/04/30 09:30:30;;;;;;;12.50;3.50;;;;;;;23.90;40.82;99201.03;4467538;32;33824;-56
2021/04/30 09:33:12;;;;;;;12.35;3.67;;;;;;;23.93;40.82;99208.72;4473163;32;33373;-51
2021/04/30 09:35:40;;;;;;;16.90;3.83;;;;;;;23.91;40.84;99202.69;4483044;32;35007;-53
2021/04/30 09:38:14;;;;;;;15.10;3.75;;;;;;;23.87;40.90;99199.63;4483298;32;33925;-57
2021/04/30 09:40:41;;;;;;;11.98;3.80;;;;;;;23.89;40.86;99200.22;4481836;32;33465;-59
2021/04/30 09:43:09;;;;;;;12.48;3.40;;;;;;;23.90;40.91;99207.31;4483193;32;33281;-60
2021/04/30 09:45:37;;;;;;;8.18;3.05;;;;;;;23.89;40.87;99208.37;4482983;32;33741;-52
2021/04/30 09:48:10;;;;;;;12.43;3.65;;;;;;;23.88;40.93;99200.47;4482962;32;34917;-59
2021/04/30 09:50:38;;;;;;;12.77;3.53;;;;;;;23.89;40.96;99202.94;4483064;32;35240;-59
2021/04/30 09:53:10;;;;;;;8.40;3.05;;;;;;;23.89;40.99;99202.94;4482848;32;33339;-60
2021/04/30 09:55:41;;;;;;;8.70;3.20;;;;;;;23.91;40.97;99213.59;4479281;32;33386;-59
2021/04/30 09:58:12;;;;;;;10.73;3.58;;;;;;;23.90;40.98;99209.22;4473296;32;34828;-59
2021/04/30 10:00:39;;;;;;;11.38;3.20;;;;;;;23.91;41.00;99208.13;4482521;32;34823;-59
2021/04/30 10:03:17;;;;;;;14.48;3.62;;;;;;;23.93;40.91;99209.56;4482527;32;33291;-59
2021/04/30 10:06:19;;;;;;;11.98;3.75;;;;;;;23.92;40.92;99223.41;4482543;32;34588;-57
2021/04/30 10:09:06;;;;;;;11.02;3.30;;;;;;;23.94;40.84;99221.28;4448809;31;34130;-56
2021/04/30 10:11:34;;;;;;;13.23;3.62;;;;;;;23.93;40.92;99217.72;4482733;32;34103;-59
2021/04/30 10:14:01;;;;;;;16.20;3.83;;;;;;;23.90;40.98;99214.66;4483845;32;33281;-59
2021/04/30 10:16:29;;;;;;;12.30;3.40;;;;;;;23.90;40.98;99217.38;4484883;32;33730;-59
2021/04/30 10:18:56;;;;;;;9.95;3.53;;;;;;;23.89;41.00;99223.91;4483925;32;33946;-55
2021/04/30 10:21:23;;;;;;;12.37;3.78;;;;;;;23.90;40.96;99215.47;4484797;32;33608;-56
2021/04/30 10:23:50;;;;;;;7.87;3.08;;;;;;;23.90;40.98;99220.94;4470577;32;34250;-59
2021/04/30 10:26:19;;;;;;;8.55;3.20;;;;;;;23.91;40.93;99216.31;4484801;32;33936;-57
2021/04/30 10:28:52;;;;;;;12.30;3.75;;;;;;;23.90;40.93;99214.66;4484832;32;34556;-59
2021/04/30 10:31:27;;;;;;;9.77;3.45;;;;;;;23.92;40.92;99207.06;4484685;32;34767;-59
2021/04/30 10:33:59;;;;;;;10.13;3.30;;;;;;;23.92;40.86;99213.38;4483392;32;33015;-58
2021/04/30 10:36:31;;;;;;;14.75;4.05;;;;;;;23.91;40.96;99205.41;4458029;32;34904;-60
2021/04/30 10:39:00;;;;;;;8.95;3.20;;;;;;;23.90;40.94;99212.75;4483537;32;33907;-58
2021/04/30 10:41:37;;;;;;;13.15;3.37;;;;;;;23.91;40.95;99208.97;4484735;32;33715;-59
2021/04/30 10:44:15;;;;;;;9.15;3.20;;;;;;;23.92;40.96;99212.50;4484749;32;33056;-60
2021/04/30 10:46:43;;;;;;;9.23;3.55;;;;;;;23.93;40.82;99217.72;4483699;32;33886;-60
2021/04/30 10:49:16;;;;;;;10.48;3.05;;;;;;;23.90;40.92;99210.03;4484530;32;33826;-60
2021/04/30 10:51:44;;;;;;;10.40;3.35;;;;;;;23.90;40.83;99217.38;4484541;32;34431;-60
2021/04/30 10:54:24;;;;;;;11.63;3.37;;;;;;;23.90;40.82;99228.28;4483166;32;33396;-60
2021/04/30 10:57:00;;;;;;;10.55;3.75;;;;;;;23.92;40.78;99220.69;4484818;32;33659;-60
2021/04/30 10:59:38;;;;;;;12.30;3.15;;;;;;;23.91;40.75;99222.59;4484705;32;33926;-61
2021/04/30 11:02:18;;;;;;;10.15;3.08;;;;;;;23.89;40.79;99230.19;4484319;32;33941;-58
2021/04/30 11:05:03;;;;;;;11.70;3.40;;;;;;;23.89;40.79;99234.81;4484337;32;34283;-59
2021/04/30 11:07:32;;;;;;;11.52;3.33;;;;;;;23.90;40.73;99234.56;4484461;32;33750;-60
2021/04/30 11:09:59;;;;;;;12.43;3.17;;;;;;;23.86;40.74;99235.28;4483019;32;33809;-59
2021/04/30 11:12:27;;;;;;;9.60;3.78;;;;;;;23.85;40.71;99223.56;4470242;32;33830;-59
2021/04/30 11:15:07;;;;;;;7.78;2.90;;;;;;;23.85;40.71;99225.47;4484618;32;33374;-58
2021/04/30 11:17:57;;;;;;;9.02;3.12;;;;;;;23.86;40.69;99229.84;4484455;32;33863;-59
2021/04/30 11:20:26;;;;;;;11.70;3.33;;;;;;;23.87;40.60;99231.50;4484361;32;34953;-60
2021/04/30 11:23:21;;;;;;;9.25;3.00;;;;;;;23.84;40.59;99221.91;4484519;32;34443;-61
2021/04/30 11:25:57;;;;;;;11.57;3.20;;;;;;;23.84;40.53;99223.81;4483347;32;33284;-61
2021/04/30 11:28:30;;;;;;;11.50;3.53;;;;;;;23.83;40.51;99228.44;4484402;32;34531;-60
2021/04/30 11:31:03;;;;;;;7.87;3.15;;;;;;;23.83;40.48;99233.06;4484223;32;33850;-57
2021/04/30 11:33:31;;;;;;;7.97;3.00;;;;;;;23.82;40.49;99234.13;4484291;32;34527;-60
2021/04/30 11:35:59;;;;;;;8.20;2.95;;;;;;;23.81;40.44;99240.63;4484382;32;33923;-58
2021/04/30 11:38:42;;;;;;;13.90;3.28;;;;;;;23.81;40.40;99238.75;4484226;32;34386;-61